sensor_id;sensor_type;location;lat;lon;timestamp;P1;durP1;ratioP1;P2;durP2;ratioP2
9665;SDS011;4871;52.004;5.924;2023-07-31T00:00:00;1.70;;;1.60;;
9665;SDS011;4871;52.004;5.924;2023-07-31T00:01:00;1.70;;;1.60;;
9665;SDS011;4871;52.004;5.924;2023-07-31T00:02:00;1.70;;;1.60;;
9665;SDS011;4871;52.004;5.924;2023-07-31T00:03:00;1.70;;;1.60;;
9665;SDS011;4871;52.004;5.924;2023-07-31T00:04:00;1.70;;;1.60;;
9665;SDS011;4871;52.004;5.924;2023-07-31T00:05:00;1.70;;;1.60;;
9665;SDS011;4871;52.004;5.924;2023-07-31T00:06:00;1.70;;;1.60;;
9665;SDS011;4871;52.004;5.924;2023-07-31T00:07:00;1.70;;;1.60;;
9665;SDS011;4871;52.004;5.924;2023-07-31T00:08:00;1.70;;;1.60;;
9665;SDS011;4871;52.004;5.924;2023-07-31T00:09:00;1.70;;;1.60;;
9665;SDS011;4871;52.004;5.924;2023-07-31T00:10:00;1.70;;;1.60;;
9665;SDS011;4871;52.004;5.924;2023-07-31T00:11:00;1.70;;;1.60;;
9665;SDS011;4871;52.004;5.924;2023-07-31T00:12:00;1.70;;;1.60;;
9665;SDS011;4871;52.004;5.924;2023-07-31T00:13:00;1.70;;;1.60;;
9665;SDS011;4871;52.004;5.924;2023-07-31T00:14:00;1.70;;;1.60;;
9665;SDS011;4871;52.004;5.924;2023-07-31T00:15:00;1.70;;;1.60;;
9665;SDS011;4871;52.004;5.924;2023-07-31T00:16:00;1.70;;;1.60;;
9665;SDS011;4871;52.004;5.924;2023-07-31T00:17:00;1.70;;;1.60;;
9665;SDS011;4871;52.004;5.924;2023-07-31T00:18:01;1.70;;;1.60;;
9665;SDS011;4871;52.004;5.924;2023-07-31T00:19:00;1.70;;;1.60;;
9665;SDS011;4871;52.004;5.924;2023-07-31T00:20:00;1.70;;;1.60;;
9665;SDS011;4871;52.004;5.924;2023-07-31T00:21:00;1.70;;;1.60;;
9665;SDS011;4871;52.004;5.924;2023-07-31T00:22:00;1.70;;;1.60;;
9665;SDS011;4871;52.004;5.924;2023-07-31T00:23:00;1.70;;;1.60;;
9665;SDS011;4871;52.004;5.924;2023-07-31T00:24:00;1.70;;;1.60;;
9665;SDS011;4871;52.004;5.924;2023-07-31T00:25:00;1.70;;;1.60;;
9665;SDS011;4871;52.004;5.924;2023-07-31T00:26:00;1.70;;;1.60;;
9665;SDS011;4871;52.004;5.924;2023-07-31T00:27:00;1.70;;;1.60;;
9665;SDS011;4871;52.004;5.924;2023-07-31T00:28:00;1.70;;;1.60;;
9665;SDS011;4871;52.004;5.924;2023-07-31T00:29:00;1.70;;;1.60;;
9665;SDS011;4871;52.004;5.924;2023-07-31T00:30:00;1.70;;;1.60;;
9665;SDS011;4871;52.004;5.924;2023-07-31T00:31:01;1.70;;;1.60;;
9665;SDS011;4871;52.004;5.924;2023-07-31T00:32:00;1.70;;;1.60;;
9665;SDS011;4871;52.004;5.924;2023-07-31T00:33:00;1.70;;;1.60;;
9665;SDS011;4871;52.004;5.924;2023-07-31T00:34:00;1.70;;;1.60;;
9665;SDS011;4871;52.004;5.924;2023-07-31T00:35:00;1.70;;;1.60;;
9665;SDS011;4871;52.004;5.924;2023-07-31T00:36:00;1.70;;;1.60;;
9665;SDS011;4871;52.004;5.924;2023-07-31T00:37:00;1.70;;;1.60;;
9665;SDS011;4871;52.004;5.924;2023-07-31T00:38:00;1.70;;;1.60;;
9665;SDS011;4871;52.004;5.924;2023-07-31T00:39:00;1.70;;;1.60;;
9665;SDS011;4871;52.004;5.924;2023-07-31T00:40:00;1.70;;;1.60;;
9665;SDS011;4871;52.004;5.924;2023-07-31T00:41:00;1.70;;;1.60;;
9665;SDS011;4871;52.004;5.924;2023-07-31T00:42:00;1.70;;;1.60;;
9665;SDS011;4871;52.004;5.924;2023-07-31T00:43:00;1.70;;;1.60;;
9665;SDS011;4871;52.004;5.924;2023-07-31T00:44:00;1.70;;;1.60;;
9665;SDS011;4871;52.004;5.924;2023-07-31T00:45:00;1.70;;;1.60;;
9665;SDS011;4871;52.004;5.924;2023-07-31T00:46:00;1.70;;;1.60;;
9665;SDS011;4871;52.004;5.924;2023-07-31T00:47:00;1.70;;;1.60;;
9665;SDS011;4871;52.004;5.924;2023-07-31T00:48:00;1.70;;;1.60;;
9665;SDS011;4871;52.004;5.924;2023-07-31T00:49:00;1.70;;;1.60;;
9665;SDS011;4871;52.004;5.924;2023-07-31T00:50:00;1.70;;;1.60;;
9665;SDS011;4871;52.004;5.924;2023-07-31T00:51:01;1.70;;;1.60;;
9665;SDS011;4871;52.004;5.924;2023-07-31T00:52:00;1.70;;;1.60;;
9665;SDS011;4871;52.004;5.924;2023-07-31T00:53:00;1.70;;;1.60;;
9665;SDS011;4871;52.004;5.924;2023-07-31T00:54:00;1.70;;;1.60;;
9665;SDS011;4871;52.004;5.924;2023-07-31T00:55:00;1.70;;;1.60;;
9665;SDS011;4871;52.004;5.924;2023-07-31T00:56:00;1.70;;;1.60;;
9665;SDS011;4871;52.004;5.924;2023-07-31T00:57:00;1.70;;;1.60;;
9665;SDS011;4871;52.004;5.924;2023-07-31T00:58:00;1.70;;;1.60;;
9665;SDS011;4871;52.004;5.924;2023-07-31T00:59:00;3.80;;;2.80;;
9665;SDS011;4871;52.004;5.924;2023-07-31T01:00:00;3.80;;;2.80;;
9665;SDS011;4871;52.004;5.924;2023-07-31T01:01:00;3.80;;;2.80;;
9665;SDS011;4871;52.004;5.924;2023-07-31T01:02:00;3.80;;;2.80;;
9665;SDS011;4871;52.004;5.924;2023-07-31T01:03:00;3.80;;;2.80;;
9665;SDS011;4871;52.004;5.924;2023-07-31T01:04:00;3.80;;;2.80;;
9665;SDS011;4871;52.004;5.924;2023-07-31T01:05:00;3.80;;;2.80;;
9665;SDS011;4871;52.004;5.924;2023-07-31T01:06:03;3.80;;;2.80;;
9665;SDS011;4871;52.004;5.924;2023-07-31T01:07:01;3.80;;;2.80;;
9665;SDS011;4871;52.004;5.924;2023-07-31T01:08:02;3.80;;;2.80;;
9665;SDS011;4871;52.004;5.924;2023-07-31T01:09:01;3.80;;;2.80;;
9665;SDS011;4871;52.004;5.924;2023-07-31T01:10:02;3.80;;;2.80;;
9665;SDS011;4871;52.004;5.924;2023-07-31T01:11:01;3.80;;;2.80;;
9665;SDS011;4871;52.004;5.924;2023-07-31T01:12:01;3.80;;;2.80;;
9665;SDS011;4871;52.004;5.924;2023-07-31T01:13:00;3.80;;;2.80;;
9665;SDS011;4871;52.004;5.924;2023-07-31T01:15:02;3.80;;;2.80;;
9665;SDS011;4871;52.004;5.924;2023-07-31T01:16:00;3.80;;;2.80;;
9665;SDS011;4871;52.004;5.924;2023-07-31T01:17:00;3.80;;;2.80;;
9665;SDS011;4871;52.004;5.924;2023-07-31T01:18:00;3.80;;;2.80;;
9665;SDS011;4871;52.004;5.924;2023-07-31T01:19:00;3.80;;;2.80;;
9665;SDS011;4871;52.004;5.924;2023-07-31T01:20:02;3.80;;;2.80;;
9665;SDS011;4871;52.004;5.924;2023-07-31T01:21:03;3.80;;;2.80;;
9665;SDS011;4871;52.004;5.924;2023-07-31T01:29:01;9.70;;;5.10;;
9665;SDS011;4871;52.004;5.924;2023-07-31T01:30:03;9.70;;;5.10;;
9665;SDS011;4871;52.004;5.924;2023-07-31T01:31:00;9.70;;;5.10;;
9665;SDS011;4871;52.004;5.924;2023-07-31T01:32:01;9.70;;;5.10;;
9665;SDS011;4871;52.004;5.924;2023-07-31T01:33:02;9.70;;;5.10;;
9665;SDS011;4871;52.004;5.924;2023-07-31T01:34:00;9.70;;;5.10;;
9665;SDS011;4871;52.004;5.924;2023-07-31T01:35:00;9.70;;;5.10;;
9665;SDS011;4871;52.004;5.924;2023-07-31T01:36:00;9.70;;;5.10;;
9665;SDS011;4871;52.004;5.924;2023-07-31T01:37:00;9.70;;;5.10;;
9665;SDS011;4871;52.004;5.924;2023-07-31T01:38:00;9.70;;;5.10;;
9665;SDS011;4871;52.004;5.924;2023-07-31T01:39:00;9.70;;;5.10;;
9665;SDS011;4871;52.004;5.924;2023-07-31T01:40:00;9.70;;;5.10;;
9665;SDS011;4871;52.004;5.924;2023-07-31T01:41:00;9.70;;;5.10;;
9665;SDS011;4871;52.004;5.924;2023-07-31T01:42:00;9.70;;;5.10;;
9665;SDS011;4871;52.004;5.924;2023-07-31T01:43:00;9.70;;;5.10;;
9665;SDS011;4871;52.004;5.924;2023-07-31T01:44:00;9.70;;;5.10;;
9665;SDS011;4871;52.004;5.924;2023-07-31T01:45:00;9.70;;;5.10;;
9665;SDS011;4871;52.004;5.924;2023-07-31T01:46:00;9.70;;;5.10;;
9665;SDS011;4871;52.004;5.924;2023-07-31T01:47:00;9.70;;;5.10;;
9665;SDS011;4871;52.004;5.924;2023-07-31T02:00:00;10.90;;;5.20;;
9665;SDS011;4871;52.004;5.924;2023-07-31T02:01:00;10.90;;;5.20;;
9665;SDS011;4871;52.004;5.924;2023-07-31T02:02:00;10.90;;;5.20;;
9665;SDS011;4871;52.004;5.924;2023-07-31T02:03:00;10.90;;;5.20;;
9665;SDS011;4871;52.004;5.924;2023-07-31T02:04:00;10.90;;;5.20;;
9665;SDS011;4871;52.004;5.924;2023-07-31T02:05:00;10.90;;;5.20;;
9665;SDS011;4871;52.004;5.924;2023-07-31T02:30:00;10.50;;;4.90;;
9665;SDS011;4871;52.004;5.924;2023-07-31T02:31:00;10.50;;;4.90;;
9665;SDS011;4871;52.004;5.924;2023-07-31T02:32:00;10.50;;;4.90;;
9665;SDS011;4871;52.004;5.924;2023-07-31T02:33:00;10.50;;;4.90;;
9665;SDS011;4871;52.004;5.924;2023-07-31T02:34:00;10.50;;;4.90;;
9665;SDS011;4871;52.004;5.924;2023-07-31T02:35:00;10.50;;;4.90;;
9665;SDS011;4871;52.004;5.924;2023-07-31T02:36:00;10.50;;;4.90;;
9665;SDS011;4871;52.004;5.924;2023-07-31T02:37:00;10.50;;;4.90;;
9665;SDS011;4871;52.004;5.924;2023-07-31T02:38:00;10.50;;;4.90;;
9665;SDS011;4871;52.004;5.924;2023-07-31T02:39:00;10.50;;;4.90;;
9665;SDS011;4871;52.004;5.924;2023-07-31T02:40:00;10.50;;;4.90;;
9665;SDS011;4871;52.004;5.924;2023-07-31T02:41:00;10.50;;;4.90;;
9665;SDS011;4871;52.004;5.924;2023-07-31T02:42:00;10.50;;;4.90;;
9665;SDS011;4871;52.004;5.924;2023-07-31T02:43:00;10.50;;;4.90;;
9665;SDS011;4871;52.004;5.924;2023-07-31T02:44:00;10.50;;;4.90;;
9665;SDS011;4871;52.004;5.924;2023-07-31T02:45:00;10.50;;;4.90;;
9665;SDS011;4871;52.004;5.924;2023-07-31T02:46:00;10.50;;;4.90;;
9665;SDS011;4871;52.004;5.924;2023-07-31T02:47:00;10.50;;;4.90;;
9665;SDS011;4871;52.004;5.924;2023-07-31T02:48:00;10.50;;;4.90;;
9665;SDS011;4871;52.004;5.924;2023-07-31T02:49:00;10.50;;;4.90;;
9665;SDS011;4871;52.004;5.924;2023-07-31T02:51:00;10.50;;;4.90;;
9665;SDS011;4871;52.004;5.924;2023-07-31T02:52:00;10.50;;;4.90;;
9665;SDS011;4871;52.004;5.924;2023-07-31T02:53:00;10.50;;;4.90;;
9665;SDS011;4871;52.004;5.924;2023-07-31T02:54:00;10.50;;;4.90;;
9665;SDS011;4871;52.004;5.924;2023-07-31T02:55:00;10.50;;;4.90;;
9665;SDS011;4871;52.004;5.924;2023-07-31T02:56:00;10.50;;;4.90;;
9665;SDS011;4871;52.004;5.924;2023-07-31T02:57:00;10.50;;;4.90;;
9665;SDS011;4871;52.004;5.924;2023-07-31T02:58:00;10.50;;;4.90;;
9665;SDS011;4871;52.004;5.924;2023-07-31T03:00:00;10.10;;;4.70;;
9665;SDS011;4871;52.004;5.924;2023-07-31T03:01:00;10.10;;;4.70;;
9665;SDS011;4871;52.004;5.924;2023-07-31T03:03:00;10.10;;;4.70;;
9665;SDS011;4871;52.004;5.924;2023-07-31T03:04:00;10.10;;;4.70;;
9665;SDS011;4871;52.004;5.924;2023-07-31T03:06:00;10.10;;;4.70;;
9665;SDS011;4871;52.004;5.924;2023-07-31T03:29:00;10.20;;;4.70;;
9665;SDS011;4871;52.004;5.924;2023-07-31T03:30:01;10.20;;;4.70;;
9665;SDS011;4871;52.004;5.924;2023-07-31T03:31:00;10.20;;;4.70;;
9665;SDS011;4871;52.004;5.924;2023-07-31T03:32:00;10.20;;;4.70;;
9665;SDS011;4871;52.004;5.924;2023-07-31T03:33:00;10.20;;;4.70;;
9665;SDS011;4871;52.004;5.924;2023-07-31T03:34:00;10.20;;;4.70;;
9665;SDS011;4871;52.004;5.924;2023-07-31T03:35:00;10.20;;;4.70;;
9665;SDS011;4871;52.004;5.924;2023-07-31T03:36:00;10.20;;;4.70;;
9665;SDS011;4871;52.004;5.924;2023-07-31T03:38:00;10.20;;;4.70;;
9665;SDS011;4871;52.004;5.924;2023-07-31T03:39:00;10.20;;;4.70;;
9665;SDS011;4871;52.004;5.924;2023-07-31T03:40:00;10.20;;;4.70;;
9665;SDS011;4871;52.004;5.924;2023-07-31T03:41:00;10.20;;;4.70;;
9665;SDS011;4871;52.004;5.924;2023-07-31T03:42:00;10.20;;;4.70;;
9665;SDS011;4871;52.004;5.924;2023-07-31T03:43:00;10.20;;;4.70;;
9665;SDS011;4871;52.004;5.924;2023-07-31T03:46:00;10.20;;;4.70;;
9665;SDS011;4871;52.004;5.924;2023-07-31T03:47:00;10.20;;;4.70;;
9665;SDS011;4871;52.004;5.924;2023-07-31T03:48:00;10.20;;;4.70;;
9665;SDS011;4871;52.004;5.924;2023-07-31T03:49:00;10.20;;;4.70;;
9665;SDS011;4871;52.004;5.924;2023-07-31T03:50:00;10.20;;;4.70;;
9665;SDS011;4871;52.004;5.924;2023-07-31T03:51:00;10.20;;;4.70;;
9665;SDS011;4871;52.004;5.924;2023-07-31T03:52:00;10.20;;;4.70;;
9665;SDS011;4871;52.004;5.924;2023-07-31T03:53:00;10.20;;;4.70;;
9665;SDS011;4871;52.004;5.924;2023-07-31T03:54:00;10.20;;;4.70;;
9665;SDS011;4871;52.004;5.924;2023-07-31T03:55:00;10.20;;;4.70;;
9665;SDS011;4871;52.004;5.924;2023-07-31T03:56:00;10.20;;;4.70;;
9665;SDS011;4871;52.004;5.924;2023-07-31T03:57:00;10.20;;;4.70;;
9665;SDS011;4871;52.004;5.924;2023-07-31T03:58:00;10.20;;;4.70;;
9665;SDS011;4871;52.004;5.924;2023-07-31T03:59:00;11.00;;;5.10;;
9665;SDS011;4871;52.004;5.924;2023-07-31T04:00:00;11.00;;;5.10;;
9665;SDS011;4871;52.004;5.924;2023-07-31T04:03:00;11.00;;;5.10;;
9665;SDS011;4871;52.004;5.924;2023-07-31T04:04:00;11.00;;;5.10;;
9665;SDS011;4871;52.004;5.924;2023-07-31T04:05:00;11.00;;;5.10;;
9665;SDS011;4871;52.004;5.924;2023-07-31T04:06:00;11.00;;;5.10;;
9665;SDS011;4871;52.004;5.924;2023-07-31T04:08:00;11.00;;;5.10;;
9665;SDS011;4871;52.004;5.924;2023-07-31T04:09:00;11.00;;;5.10;;
9665;SDS011;4871;52.004;5.924;2023-07-31T04:10:00;11.00;;;5.10;;
9665;SDS011;4871;52.004;5.924;2023-07-31T04:11:00;11.00;;;5.10;;
9665;SDS011;4871;52.004;5.924;2023-07-31T04:12:00;11.00;;;5.10;;
9665;SDS011;4871;52.004;5.924;2023-07-31T04:13:00;11.00;;;5.10;;
9665;SDS011;4871;52.004;5.924;2023-07-31T04:14:00;11.00;;;5.10;;
9665;SDS011;4871;52.004;5.924;2023-07-31T04:15:00;11.00;;;5.10;;
9665;SDS011;4871;52.004;5.924;2023-07-31T04:16:00;11.00;;;5.10;;
9665;SDS011;4871;52.004;5.924;2023-07-31T04:18:00;11.00;;;5.10;;
9665;SDS011;4871;52.004;5.924;2023-07-31T04:19:00;11.00;;;5.10;;
9665;SDS011;4871;52.004;5.924;2023-07-31T04:20:00;11.00;;;5.10;;
9665;SDS011;4871;52.004;5.924;2023-07-31T04:24:00;11.00;;;5.10;;
9665;SDS011;4871;52.004;5.924;2023-07-31T04:25:00;11.00;;;5.10;;
9665;SDS011;4871;52.004;5.924;2023-07-31T04:26:00;11.00;;;5.10;;
9665;SDS011;4871;52.004;5.924;2023-07-31T04:27:00;11.00;;;5.10;;
9665;SDS011;4871;52.004;5.924;2023-07-31T04:28:00;11.00;;;5.10;;
9665;SDS011;4871;52.004;5.924;2023-07-31T04:29:00;10.50;;;4.40;;
9665;SDS011;4871;52.004;5.924;2023-07-31T04:30:00;10.50;;;4.40;;
9665;SDS011;4871;52.004;5.924;2023-07-31T04:31:00;10.50;;;4.40;;
9665;SDS011;4871;52.004;5.924;2023-07-31T04:32:00;10.50;;;4.40;;
9665;SDS011;4871;52.004;5.924;2023-07-31T04:33:00;10.50;;;4.40;;
9665;SDS011;4871;52.004;5.924;2023-07-31T04:34:00;10.50;;;4.40;;
9665;SDS011;4871;52.004;5.924;2023-07-31T04:35:00;10.50;;;4.40;;
9665;SDS011;4871;52.004;5.924;2023-07-31T04:36:00;10.50;;;4.40;;
9665;SDS011;4871;52.004;5.924;2023-07-31T04:37:00;10.50;;;4.40;;
9665;SDS011;4871;52.004;5.924;2023-07-31T04:38:00;10.50;;;4.40;;
9665;SDS011;4871;52.004;5.924;2023-07-31T04:39:00;10.50;;;4.40;;
9665;SDS011;4871;52.004;5.924;2023-07-31T04:40:00;10.50;;;4.40;;
9665;SDS011;4871;52.004;5.924;2023-07-31T04:41:00;10.50;;;4.40;;
9665;SDS011;4871;52.004;5.924;2023-07-31T04:42:00;10.50;;;4.40;;
9665;SDS011;4871;52.004;5.924;2023-07-31T04:43:00;10.50;;;4.40;;
9665;SDS011;4871;52.004;5.924;2023-07-31T04:44:00;10.50;;;4.40;;
9665;SDS011;4871;52.004;5.924;2023-07-31T04:45:00;10.50;;;4.40;;
9665;SDS011;4871;52.004;5.924;2023-07-31T04:46:00;10.50;;;4.40;;
9665;SDS011;4871;52.004;5.924;2023-07-31T04:59:00;11.20;;;4.90;;
9665;SDS011;4871;52.004;5.924;2023-07-31T05:00:00;11.20;;;4.90;;
9665;SDS011;4871;52.004;5.924;2023-07-31T05:01:00;11.20;;;4.90;;
9665;SDS011;4871;52.004;5.924;2023-07-31T05:02:00;11.20;;;4.90;;
9665;SDS011;4871;52.004;5.924;2023-07-31T05:03:00;11.20;;;4.90;;
9665;SDS011;4871;52.004;5.924;2023-07-31T05:04:00;11.20;;;4.90;;
9665;SDS011;4871;52.004;5.924;2023-07-31T05:06:00;11.20;;;4.90;;
9665;SDS011;4871;52.004;5.924;2023-07-31T05:07:00;11.20;;;4.90;;
9665;SDS011;4871;52.004;5.924;2023-07-31T05:08:00;11.20;;;4.90;;
9665;SDS011;4871;52.004;5.924;2023-07-31T05:09:00;11.20;;;4.90;;
9665;SDS011;4871;52.004;5.924;2023-07-31T05:10:00;11.20;;;4.90;;
9665;SDS011;4871;52.004;5.924;2023-07-31T05:11:00;11.20;;;4.90;;
9665;SDS011;4871;52.004;5.924;2023-07-31T05:13:00;11.20;;;4.90;;
9665;SDS011;4871;52.004;5.924;2023-07-31T05:16:00;11.20;;;4.90;;
9665;SDS011;4871;52.004;5.924;2023-07-31T05:17:00;11.20;;;4.90;;
9665;SDS011;4871;52.004;5.924;2023-07-31T05:19:00;11.20;;;4.90;;
9665;SDS011;4871;52.004;5.924;2023-07-31T05:20:00;11.20;;;4.90;;
9665;SDS011;4871;52.004;5.924;2023-07-31T05:21:00;11.20;;;4.90;;
9665;SDS011;4871;52.004;5.924;2023-07-31T05:22:00;11.20;;;4.90;;
9665;SDS011;4871;52.004;5.924;2023-07-31T05:24:00;11.20;;;4.90;;
9665;SDS011;4871;52.004;5.924;2023-07-31T05:26:02;11.20;;;4.90;;
9665;SDS011;4871;52.004;5.924;2023-07-31T05:27:00;11.20;;;4.90;;
9665;SDS011;4871;52.004;5.924;2023-07-31T05:28:00;11.20;;;4.40;;
9665;SDS011;4871;52.004;5.924;2023-07-31T05:29:00;11.20;;;4.40;;
9665;SDS011;4871;52.004;5.924;2023-07-31T05:30:00;11.20;;;4.40;;
9665;SDS011;4871;52.004;5.924;2023-07-31T05:31:00;11.20;;;4.40;;
9665;SDS011;4871;52.004;5.924;2023-07-31T05:32:00;11.20;;;4.40;;
9665;SDS011;4871;52.004;5.924;2023-07-31T05:33:00;11.20;;;4.40;;
9665;SDS011;4871;52.004;5.924;2023-07-31T05:34:00;11.20;;;4.40;;
9665;SDS011;4871;52.004;5.924;2023-07-31T05:35:00;11.20;;;4.40;;
9665;SDS011;4871;52.004;5.924;2023-07-31T05:36:00;11.20;;;4.40;;
9665;SDS011;4871;52.004;5.924;2023-07-31T05:37:00;11.20;;;4.40;;
9665;SDS011;4871;52.004;5.924;2023-07-31T05:38:00;11.20;;;4.40;;
9665;SDS011;4871;52.004;5.924;2023-07-31T05:39:00;11.20;;;4.40;;
9665;SDS011;4871;52.004;5.924;2023-07-31T05:40:00;11.20;;;4.40;;
9665;SDS011;4871;52.004;5.924;2023-07-31T05:41:00;11.20;;;4.40;;
9665;SDS011;4871;52.004;5.924;2023-07-31T05:42:00;11.20;;;4.40;;
9665;SDS011;4871;52.004;5.924;2023-07-31T05:43:00;11.20;;;4.40;;
9665;SDS011;4871;52.004;5.924;2023-07-31T05:59:00;8.40;;;4.10;;
9665;SDS011;4871;52.004;5.924;2023-07-31T06:00:00;8.40;;;4.10;;
9665;SDS011;4871;52.004;5.924;2023-07-31T06:01:00;8.40;;;4.10;;
9665;SDS011;4871;52.004;5.924;2023-07-31T06:02:00;8.40;;;4.10;;
9665;SDS011;4871;52.004;5.924;2023-07-31T06:03:00;8.40;;;4.10;;
9665;SDS011;4871;52.004;5.924;2023-07-31T06:05:01;8.40;;;4.10;;
9665;SDS011;4871;52.004;5.924;2023-07-31T06:06:00;8.40;;;4.10;;
9665;SDS011;4871;52.004;5.924;2023-07-31T06:30:00;6.50;;;3.40;;
9665;SDS011;4871;52.004;5.924;2023-07-31T06:31:00;6.50;;;3.40;;
9665;SDS011;4871;52.004;5.924;2023-07-31T06:32:00;6.50;;;3.40;;
9665;SDS011;4871;52.004;5.924;2023-07-31T06:33:00;6.50;;;3.40;;
9665;SDS011;4871;52.004;5.924;2023-07-31T06:34:00;6.50;;;3.40;;
9665;SDS011;4871;52.004;5.924;2023-07-31T06:35:00;6.50;;;3.40;;
9665;SDS011;4871;52.004;5.924;2023-07-31T06:36:00;6.50;;;3.40;;
9665;SDS011;4871;52.004;5.924;2023-07-31T06:37:00;6.50;;;3.40;;
9665;SDS011;4871;52.004;5.924;2023-07-31T06:39:00;6.50;;;3.40;;
9665;SDS011;4871;52.004;5.924;2023-07-31T06:40:00;6.50;;;3.40;;
9665;SDS011;4871;52.004;5.924;2023-07-31T06:41:00;6.50;;;3.40;;
9665;SDS011;4871;52.004;5.924;2023-07-31T06:42:00;6.50;;;3.40;;
9665;SDS011;4871;52.004;5.924;2023-07-31T06:43:06;6.50;;;3.40;;
9665;SDS011;4871;52.004;5.924;2023-07-31T06:44:00;6.50;;;3.40;;
9665;SDS011;4871;52.004;5.924;2023-07-31T06:45:00;6.50;;;3.40;;
9665;SDS011;4871;52.004;5.924;2023-07-31T06:46:04;6.50;;;3.40;;
9665;SDS011;4871;52.004;5.924;2023-07-31T06:47:00;6.50;;;3.40;;
9665;SDS011;4871;52.004;5.924;2023-07-31T06:48:01;6.50;;;3.40;;
9665;SDS011;4871;52.004;5.924;2023-07-31T06:49:00;6.50;;;3.40;;
9665;SDS011;4871;52.004;5.924;2023-07-31T06:50:00;6.50;;;3.40;;
9665;SDS011;4871;52.004;5.924;2023-07-31T06:51:00;6.50;;;3.40;;
9665;SDS011;4871;52.004;5.924;2023-07-31T06:53:00;6.50;;;3.40;;
9665;SDS011;4871;52.004;5.924;2023-07-31T06:54:00;6.50;;;3.40;;
9665;SDS011;4871;52.004;5.924;2023-07-31T06:55:00;6.50;;;3.40;;
9665;SDS011;4871;52.004;5.924;2023-07-31T06:56:00;6.50;;;3.40;;
9665;SDS011;4871;52.004;5.924;2023-07-31T06:57:00;6.50;;;3.40;;
9665;SDS011;4871;52.004;5.924;2023-07-31T06:58:00;5.30;;;3.00;;
9665;SDS011;4871;52.004;5.924;2023-07-31T06:59:00;5.30;;;3.00;;
9665;SDS011;4871;52.004;5.924;2023-07-31T07:00:00;5.30;;;3.00;;
9665;SDS011;4871;52.004;5.924;2023-07-31T07:01:00;5.30;;;3.00;;
9665;SDS011;4871;52.004;5.924;2023-07-31T07:02:00;5.30;;;3.00;;
9665;SDS011;4871;52.004;5.924;2023-07-31T07:03:00;5.30;;;3.00;;
9665;SDS011;4871;52.004;5.924;2023-07-31T07:05:00;5.30;;;3.00;;
9665;SDS011;4871;52.004;5.924;2023-07-31T07:06:00;5.30;;;3.00;;
9665;SDS011;4871;52.004;5.924;2023-07-31T07:07:00;5.30;;;3.00;;
9665;SDS011;4871;52.004;5.924;2023-07-31T07:31:00;1.90;;;1.60;;
9665;SDS011;4871;52.004;5.924;2023-07-31T07:32:00;1.90;;;1.60;;
9665;SDS011;4871;52.004;5.924;2023-07-31T07:33:00;1.90;;;1.60;;
9665;SDS011;4871;52.004;5.924;2023-07-31T07:35:00;1.90;;;1.60;;
9665;SDS011;4871;52.004;5.924;2023-07-31T07:36:00;1.90;;;1.60;;
9665;SDS011;4871;52.004;5.924;2023-07-31T07:37:00;1.90;;;1.60;;
9665;SDS011;4871;52.004;5.924;2023-07-31T07:38:01;1.90;;;1.60;;
9665;SDS011;4871;52.004;5.924;2023-07-31T07:39:00;1.90;;;1.60;;
9665;SDS011;4871;52.004;5.924;2023-07-31T07:40:00;1.90;;;1.60;;
9665;SDS011;4871;52.004;5.924;2023-07-31T07:41:00;1.90;;;1.60;;
9665;SDS011;4871;52.004;5.924;2023-07-31T07:42:00;1.90;;;1.60;;
9665;SDS011;4871;52.004;5.924;2023-07-31T07:43:00;1.90;;;1.60;;
9665;SDS011;4871;52.004;5.924;2023-07-31T07:45:00;1.90;;;1.60;;
9665;SDS011;4871;52.004;5.924;2023-07-31T07:46:00;1.90;;;1.60;;
9665;SDS011;4871;52.004;5.924;2023-07-31T07:47:00;1.90;;;1.60;;
9665;SDS011;4871;52.004;5.924;2023-07-31T07:48:00;1.90;;;1.60;;
9665;SDS011;4871;52.004;5.924;2023-07-31T07:49:00;1.90;;;1.60;;
9665;SDS011;4871;52.004;5.924;2023-07-31T07:50:00;1.90;;;1.60;;
9665;SDS011;4871;52.004;5.924;2023-07-31T07:51:00;1.90;;;1.60;;
9665;SDS011;4871;52.004;5.924;2023-07-31T07:53:00;1.90;;;1.60;;
9665;SDS011;4871;52.004;5.924;2023-07-31T07:54:00;1.90;;;1.60;;
9665;SDS011;4871;52.004;5.924;2023-07-31T07:55:00;1.90;;;1.60;;
9665;SDS011;4871;52.004;5.924;2023-07-31T07:56:00;1.90;;;1.60;;
9665;SDS011;4871;52.004;5.924;2023-07-31T07:57:00;1.90;;;1.60;;
9665;SDS011;4871;52.004;5.924;2023-07-31T07:58:00;1.90;;;1.60;;
9665;SDS011;4871;52.004;5.924;2023-07-31T07:59:00;1.50;;;1.20;;
9665;SDS011;4871;52.004;5.924;2023-07-31T08:00:00;1.50;;;1.20;;
9665;SDS011;4871;52.004;5.924;2023-07-31T08:01:00;1.50;;;1.20;;
9665;SDS011;4871;52.004;5.924;2023-07-31T08:02:00;1.50;;;1.20;;
9665;SDS011;4871;52.004;5.924;2023-07-31T08:03:00;1.50;;;1.20;;
9665;SDS011;4871;52.004;5.924;2023-07-31T08:04:00;1.50;;;1.20;;
9665;SDS011;4871;52.004;5.924;2023-07-31T08:05:00;1.50;;;1.20;;
9665;SDS011;4871;52.004;5.924;2023-07-31T08:06:00;1.50;;;1.20;;
9665;SDS011;4871;52.004;5.924;2023-07-31T08:07:00;1.50;;;1.20;;
9665;SDS011;4871;52.004;5.924;2023-07-31T08:08:00;1.50;;;1.20;;
9665;SDS011;4871;52.004;5.924;2023-07-31T08:09:05;1.50;;;1.20;;
9665;SDS011;4871;52.004;5.924;2023-07-31T08:10:00;1.50;;;1.20;;
9665;SDS011;4871;52.004;5.924;2023-07-31T08:11:00;1.50;;;1.20;;
9665;SDS011;4871;52.004;5.924;2023-07-31T08:12:03;1.50;;;1.20;;
9665;SDS011;4871;52.004;5.924;2023-07-31T08:13:00;1.50;;;1.20;;
9665;SDS011;4871;52.004;5.924;2023-07-31T08:14:00;1.50;;;1.20;;
9665;SDS011;4871;52.004;5.924;2023-07-31T08:15:00;1.50;;;1.20;;
9665;SDS011;4871;52.004;5.924;2023-07-31T08:16:00;1.50;;;1.20;;
9665;SDS011;4871;52.004;5.924;2023-07-31T08:17:00;1.50;;;1.20;;
9665;SDS011;4871;52.004;5.924;2023-07-31T08:18:00;1.50;;;1.20;;
9665;SDS011;4871;52.004;5.924;2023-07-31T08:19:00;1.50;;;1.20;;
9665;SDS011;4871;52.004;5.924;2023-07-31T08:20:00;1.50;;;1.20;;
9665;SDS011;4871;52.004;5.924;2023-07-31T08:21:02;1.50;;;1.20;;
9665;SDS011;4871;52.004;5.924;2023-07-31T08:22:00;1.50;;;1.20;;
9665;SDS011;4871;52.004;5.924;2023-07-31T08:24:00;1.50;;;1.20;;
9665;SDS011;4871;52.004;5.924;2023-07-31T08:25:00;1.50;;;1.20;;
9665;SDS011;4871;52.004;5.924;2023-07-31T08:26:00;1.50;;;1.20;;
9665;SDS011;4871;52.004;5.924;2023-07-31T08:27:00;1.50;;;1.20;;
9665;SDS011;4871;52.004;5.924;2023-07-31T08:28:00;1.50;;;1.20;;
9665;SDS011;4871;52.004;5.924;2023-07-31T08:29:00;1.50;;;1.20;;
9665;SDS011;4871;52.004;5.924;2023-07-31T08:30:00;1.50;;;1.20;;
9665;SDS011;4871;52.004;5.924;2023-07-31T08:31:00;1.50;;;1.20;;
9665;SDS011;4871;52.004;5.924;2023-07-31T08:32:00;1.50;;;1.20;;
9665;SDS011;4871;52.004;5.924;2023-07-31T08:33:00;1.50;;;1.20;;
9665;SDS011;4871;52.004;5.924;2023-07-31T08:34:00;1.50;;;1.20;;
9665;SDS011;4871;52.004;5.924;2023-07-31T08:35:00;1.50;;;1.20;;
9665;SDS011;4871;52.004;5.924;2023-07-31T08:36:01;1.50;;;1.20;;
9665;SDS011;4871;52.004;5.924;2023-07-31T08:37:00;1.50;;;1.20;;
9665;SDS011;4871;52.004;5.924;2023-07-31T08:38:00;1.50;;;1.20;;
9665;SDS011;4871;52.004;5.924;2023-07-31T08:39:00;1.50;;;1.20;;
9665;SDS011;4871;52.004;5.924;2023-07-31T08:40:00;1.50;;;1.20;;
9665;SDS011;4871;52.004;5.924;2023-07-31T08:41:00;1.50;;;1.20;;
9665;SDS011;4871;52.004;5.924;2023-07-31T08:42:00;1.50;;;1.20;;
9665;SDS011;4871;52.004;5.924;2023-07-31T08:43:02;1.50;;;1.20;;
9665;SDS011;4871;52.004;5.924;2023-07-31T08:44:00;1.50;;;1.20;;
9665;SDS011;4871;52.004;5.924;2023-07-31T08:45:00;1.50;;;1.20;;
9665;SDS011;4871;52.004;5.924;2023-07-31T08:46:00;1.50;;;1.20;;
9665;SDS011;4871;52.004;5.924;2023-07-31T08:47:00;1.50;;;1.20;;
9665;SDS011;4871;52.004;5.924;2023-07-31T08:48:00;1.50;;;1.20;;
9665;SDS011;4871;52.004;5.924;2023-07-31T08:49:00;1.50;;;1.20;;
9665;SDS011;4871;52.004;5.924;2023-07-31T08:50:00;1.50;;;1.20;;
9665;SDS011;4871;52.004;5.924;2023-07-31T08:51:00;1.50;;;1.20;;
9665;SDS011;4871;52.004;5.924;2023-07-31T08:52:00;1.50;;;1.20;;
9665;SDS011;4871;52.004;5.924;2023-07-31T08:53:00;1.50;;;1.20;;
9665;SDS011;4871;52.004;5.924;2023-07-31T08:54:00;1.50;;;1.20;;
9665;SDS011;4871;52.004;5.924;2023-07-31T08:55:00;1.50;;;1.20;;
9665;SDS011;4871;52.004;5.924;2023-07-31T08:56:00;1.50;;;1.20;;
9665;SDS011;4871;52.004;5.924;2023-07-31T08:57:00;1.50;;;1.20;;
9665;SDS011;4871;52.004;5.924;2023-07-31T08:58:00;1.50;;;1.20;;